sensor_id;sensor_type;location;lat;lon;timestamp;P1;durP1;ratioP1;P2;durP2;ratioP2
26562;SDS011;14217;50.986;5.826;2022-07-06T00:04:51;1.17;;;0.50;;
26562;SDS011;14217;50.986;5.826;2022-07-06T00:09:54;3.80;;;0.57;;
26562;SDS011;14217;50.986;5.826;2022-07-06T00:25:52;2.63;;;0.70;;
26562;SDS011;14217;50.986;5.826;2022-07-06T00:30:53;1.95;;;0.57;;
26562;SDS011;14217;50.986;5.826;2022-07-06T00:35:56;1.05;;;0.40;;
26562;SDS011;14217;50.986;5.826;2022-07-06T00:40:58;2.28;;;0.50;;
26562;SDS011;14217;50.986;5.826;2022-07-06T00:46:00;1.95;;;0.35;;
26562;SDS011;14217;50.986;5.826;2022-07-06T00:51:02;1.27;;;0.50;;
26562;SDS011;14217;50.986;5.826;2022-07-06T00:56:04;2.20;;;0.75;;
26562;SDS011;14217;50.986;5.826;2022-07-06T01:01:07;1.15;;;0.52;;
26562;SDS011;14217;50.986;5.826;2022-07-06T01:06:08;0.32;;;0.32;;
26562;SDS011;14217;50.986;5.826;2022-07-06T01:11:11;0.30;;;0.30;;
26562;SDS011;14217;50.986;5.826;2022-07-06T01:16:14;2.00;;;0.60;;
26562;SDS011;14217;50.986;5.826;2022-07-06T01:21:16;0.98;;;0.40;;
26562;SDS011;14217;50.986;5.826;2022-07-06T01:26:19;1.52;;;0.50;;
26562;SDS011;14217;50.986;5.826;2022-07-06T01:31:23;1.35;;;0.50;;
26562;SDS011;14217;50.986;5.826;2022-07-06T01:36:26;0.98;;;0.57;;
26562;SDS011;14217;50.986;5.826;2022-07-06T01:41:28;1.70;;;0.50;;
26562;SDS011;14217;50.986;5.826;2022-07-06T01:46:30;0.95;;;0.55;;
26562;SDS011;14217;50.986;5.826;2022-07-06T01:51:33;1.55;;;0.40;;
26562;SDS011;14217;50.986;5.826;2022-07-06T01:56:35;1.17;;;0.47;;
26562;SDS011;14217;50.986;5.826;2022-07-06T02:01:36;1.15;;;0.45;;
26562;SDS011;14217;50.986;5.826;2022-07-06T02:06:38;1.10;;;0.47;;
26562;SDS011;14217;50.986;5.826;2022-07-06T02:11:40;1.00;;;0.40;;
26562;SDS011;14217;50.986;5.826;2022-07-06T02:16:43;1.00;;;0.30;;
26562;SDS011;14217;50.986;5.826;2022-07-06T02:21:44;1.02;;;0.40;;
26562;SDS011;14217;50.986;5.826;2022-07-06T02:26:47;1.42;;;0.40;;
26562;SDS011;14217;50.986;5.826;2022-07-06T02:31:49;1.08;;;0.60;;
26562;SDS011;14217;50.986;5.826;2022-07-06T02:36:51;1.00;;;0.50;;
26562;SDS011;14217;50.986;5.826;2022-07-06T02:41:53;1.92;;;0.55;;
26562;SDS011;14217;50.986;5.826;2022-07-06T02:46:56;1.75;;;0.52;;
26562;SDS011;14217;50.986;5.826;2022-07-06T02:51:58;0.47;;;0.40;;
26562;SDS011;14217;50.986;5.826;2022-07-06T02:57:00;0.93;;;0.28;;
26562;SDS011;14217;50.986;5.826;2022-07-06T03:02:03;1.25;;;0.52;;
26562;SDS011;14217;50.986;5.826;2022-07-06T03:07:05;1.35;;;0.30;;
26562;SDS011;14217;50.986;5.826;2022-07-06T03:12:07;1.25;;;0.55;;
26562;SDS011;14217;50.986;5.826;2022-07-06T03:17:10;0.88;;;0.50;;
26562;SDS011;14217;50.986;5.826;2022-07-06T03:22:11;2.47;;;0.60;;
26562;SDS011;14217;50.986;5.826;2022-07-06T03:27:13;0.90;;;0.40;;
26562;SDS011;14217;50.986;5.826;2022-07-06T03:32:16;1.55;;;0.60;;
26562;SDS011;14217;50.986;5.826;2022-07-06T03:37:18;2.55;;;0.50;;
26562;SDS011;14217;50.986;5.826;2022-07-06T03:42:20;0.75;;;0.60;;
26562;SDS011;14217;50.986;5.826;2022-07-06T03:47:22;1.52;;;0.60;;
26562;SDS011;14217;50.986;5.826;2022-07-06T03:52:24;1.60;;;0.60;;
26562;SDS011;14217;50.986;5.826;2022-07-06T03:57:26;0.65;;;0.47;;
26562;SDS011;14217;50.986;5.826;2022-07-06T04:02:28;6.55;;;0.70;;
26562;SDS011;14217;50.986;5.826;2022-07-06T04:07:31;1.27;;;0.57;;
26562;SDS011;14217;50.986;5.826;2022-07-06T04:12:39;2.42;;;0.60;;
26562;SDS011;14217;50.986;5.826;2022-07-06T04:17:42;0.85;;;0.30;;
26562;SDS011;14217;50.986;5.826;2022-07-06T04:22:53;0.65;;;0.43;;
26562;SDS011;14217;50.986;5.826;2022-07-06T04:27:55;0.52;;;0.40;;
26562;SDS011;14217;50.986;5.826;2022-07-06T04:32:57;1.80;;;0.47;;
26562;SDS011;14217;50.986;5.826;2022-07-06T04:37:59;0.80;;;0.65;;
26562;SDS011;14217;50.986;5.826;2022-07-06T04:43:01;0.82;;;0.50;;
26562;SDS011;14217;50.986;5.826;2022-07-06T04:48:03;0.90;;;0.30;;
26562;SDS011;14217;50.986;5.826;2022-07-06T04:53:06;0.55;;;0.45;;
26562;SDS011;14217;50.986;5.826;2022-07-06T04:58:08;0.77;;;0.40;;
26562;SDS011;14217;50.986;5.826;2022-07-06T05:03:10;0.63;;;0.50;;
26562;SDS011;14217;50.986;5.826;2022-07-06T05:08:12;0.40;;;0.40;;
26562;SDS011;14217;50.986;5.826;2022-07-06T05:13:14;2.53;;;0.57;;
26562;SDS011;14217;50.986;5.826;2022-07-06T05:18:16;1.00;;;0.30;;
26562;SDS011;14217;50.986;5.826;2022-07-06T05:23:18;1.75;;;0.47;;
26562;SDS011;14217;50.986;5.826;2022-07-06T05:28:20;1.10;;;0.38;;
26562;SDS011;14217;50.986;5.826;2022-07-06T05:33:23;4.78;;;0.60;;
26562;SDS011;14217;50.986;5.826;2022-07-06T05:38:25;1.05;;;0.70;;
26562;SDS011;14217;50.986;5.826;2022-07-06T05:43:28;0.50;;;0.50;;
26562;SDS011;14217;50.986;5.826;2022-07-06T05:48:30;3.58;;;0.50;;
26562;SDS011;14217;50.986;5.826;2022-07-06T05:53:50;0.57;;;0.52;;
26562;SDS011;14217;50.986;5.826;2022-07-06T05:58:53;0.40;;;0.40;;
26562;SDS011;14217;50.986;5.826;2022-07-06T06:03:54;1.30;;;0.70;;
26562;SDS011;14217;50.986;5.826;2022-07-06T06:08:57;4.30;;;1.27;;
26562;SDS011;14217;50.986;5.826;2022-07-06T06:13:59;1.42;;;0.88;;
26562;SDS011;14217;50.986;5.826;2022-07-06T06:19:01;2.15;;;0.50;;
26562;SDS011;14217;50.986;5.826;2022-07-06T06:24:03;2.53;;;0.70;;
26562;SDS011;14217;50.986;5.826;2022-07-06T06:29:05;2.47;;;0.75;;
26562;SDS011;14217;50.986;5.826;2022-07-06T06:34:07;2.33;;;0.55;;
26562;SDS011;14217;50.986;5.826;2022-07-06T06:39:09;1.25;;;0.70;;
26562;SDS011;14217;50.986;5.826;2022-07-06T06:44:11;1.33;;;0.47;;
26562;SDS011;14217;50.986;5.826;2022-07-06T06:49:13;1.85;;;0.88;;
26562;SDS011;14217;50.986;5.826;2022-07-06T06:54:15;4.47;;;0.57;;
26562;SDS011;14217;50.986;5.826;2022-07-06T06:59:17;4.57;;;0.82;;
26562;SDS011;14217;50.986;5.826;2022-07-06T07:04:19;2.67;;;0.70;;
26562;SDS011;14217;50.986;5.826;2022-07-06T07:09:21;2.75;;;1.17;;
26562;SDS011;14217;50.986;5.826;2022-07-06T07:14:23;1.52;;;0.60;;
26562;SDS011;14217;50.986;5.826;2022-07-06T07:19:25;8.45;;;0.90;;
26562;SDS011;14217;50.986;5.826;2022-07-06T07:24:27;2.95;;;1.08;;
26562;SDS011;14217;50.986;5.826;2022-07-06T07:29:29;5.30;;;0.90;;
26562;SDS011;14217;50.986;5.826;2022-07-06T07:34:32;3.97;;;0.80;;
26562;SDS011;14217;50.986;5.826;2022-07-06T07:39:34;1.15;;;0.57;;
26562;SDS011;14217;50.986;5.826;2022-07-06T07:44:36;0.95;;;0.60;;
26562;SDS011;14217;50.986;5.826;2022-07-06T07:49:40;6.45;;;0.70;;
26562;SDS011;14217;50.986;5.826;2022-07-06T07:54:42;6.50;;;0.63;;
26562;SDS011;14217;50.986;5.826;2022-07-06T07:59:54;2.10;;;0.95;;
26562;SDS011;14217;50.986;5.826;2022-07-06T08:04:56;1.55;;;0.45;;
26562;SDS011;14217;50.986;5.826;2022-07-06T08:09:58;0.40;;;0.30;;
26562;SDS011;14217;50.986;5.826;2022-07-06T08:15:00;0.80;;;0.40;;
26562;SDS011;14217;50.986;5.826;2022-07-06T08:20:02;1.55;;;0.43;;
26562;SDS011;14217;50.986;5.826;2022-07-06T08:25:04;2.17;;;0.40;;
26562;SDS011;14217;50.986;5.826;2022-07-06T08:30:07;9.35;;;0.52;;
26562;SDS011;14217;50.986;5.826;2022-07-06T08:35:09;1.25;;;0.40;;
26562;SDS011;14217;50.986;5.826;2022-07-06T08:40:11;7.55;;;0.80;;
26562;SDS011;14217;50.986;5.826;2022-07-06T08:45:14;2.55;;;0.43;;
26562;SDS011;14217;50.986;5.826;2022-07-06T08:50:17;0.57;;;0.30;;
26562;SDS011;14217;50.986;5.826;2022-07-06T08:55:21;2.08;;;0.50;;
26562;SDS011;14217;50.986;5.826;2022-07-06T09:00:26;0.98;;;0.40;;
26562;SDS011;14217;50.986;5.826;2022-07-06T09:05:28;1.67;;;0.50;;
26562;SDS011;14217;50.986;5.826;2022-07-06T09:10:30;0.20;;;0.20;;
26562;SDS011;14217;50.986;5.826;2022-07-06T09:15:33;1.95;;;0.38;;
26562;SDS011;14217;50.986;5.826;2022-07-06T09:20:36;0.47;;;0.40;;
26562;SDS011;14217;50.986;5.826;2022-07-06T09:25:38;1.90;;;0.30;;
26562;SDS011;14217;50.986;5.826;2022-07-06T09:30:40;0.40;;;0.40;;
26562;SDS011;14217;50.986;5.826;2022-07-06T09:35:43;5.15;;;0.30;;
26562;SDS011;14217;50.986;5.826;2022-07-06T09:40:46;10.63;;;0.32;;
26562;SDS011;14217;50.986;5.826;2022-07-06T09:45:54;0.70;;;0.30;;
26562;SDS011;14217;50.986;5.826;2022-07-06T09:50:58;0.30;;;0.13;;
26562;SDS011;14217;50.986;5.826;2022-07-06T09:56:04;1.75;;;0.13;;
26562;SDS011;14217;50.986;5.826;2022-07-06T10:01:06;0.40;;;0.20;;
26562;SDS011;14217;50.986;5.826;2022-07-06T10:06:11;1.05;;;0.20;;
26562;SDS011;14217;50.986;5.826;2022-07-06T10:11:13;1.95;;;0.40;;
26562;SDS011;14217;50.986;5.826;2022-07-06T10:16:16;1.85;;;0.40;;
26562;SDS011;14217;50.986;5.826;2022-07-06T10:21:19;0.20;;;0.20;;
26562;SDS011;14217;50.986;5.826;2022-07-06T10:26:22;0.28;;;0.20;;
26562;SDS011;14217;50.986;5.826;2022-07-06T10:31:25;2.78;;;0.43;;
26562;SDS011;14217;50.986;5.826;2022-07-06T10:36:30;0.13;;;0.13;;
26562;SDS011;14217;50.986;5.826;2022-07-06T10:41:33;0.65;;;0.20;;
26562;SDS011;14217;50.986;5.826;2022-07-06T10:46:38;0.35;;;0.30;;
26562;SDS011;14217;50.986;5.826;2022-07-06T10:51:41;1.45;;;0.15;;
26562;SDS011;14217;50.986;5.826;2022-07-06T11:07:18;0.95;;;0.30;;
26562;SDS011;14217;50.986;5.826;2022-07-06T11:12:21;3.83;;;0.30;;
26562;SDS011;14217;50.986;5.826;2022-07-06T11:17:23;0.75;;;0.30;;
26562;SDS011;14217;50.986;5.826;2022-07-06T11:22:26;2.45;;;0.38;;
26562;SDS011;14217;50.986;5.826;2022-07-06T11:27:31;2.83;;;0.73;;
26562;SDS011;14217;50.986;5.826;2022-07-06T11:32:34;0.38;;;0.20;;
26562;SDS011;14217;50.986;5.826;2022-07-06T11:37:36;1.02;;;0.35;;
26562;SDS011;14217;50.986;5.826;2022-07-06T11:42:38;0.17;;;0.13;;
26562;SDS011;14217;50.986;5.826;2022-07-06T11:47:41;0.10;;;0.10;;
26562;SDS011;14217;50.986;5.826;2022-07-06T11:52:43;1.02;;;0.30;;
26562;SDS011;14217;50.986;5.826;2022-07-06T11:57:46;0.40;;;0.13;;
26562;SDS011;14217;50.986;5.826;2022-07-06T12:03:07;0.32;;;0.20;;
26562;SDS011;14217;50.986;5.826;2022-07-06T12:08:08;0.55;;;0.20;;
26562;SDS011;14217;50.986;5.826;2022-07-06T12:13:10;0.47;;;0.20;;
26562;SDS011;14217;50.986;5.826;2022-07-06T12:18:12;0.32;;;0.13;;
26562;SDS011;14217;50.986;5.826;2022-07-06T12:23:14;0.35;;;0.20;;
26562;SDS011;14217;50.986;5.826;2022-07-06T12:28:23;0.30;;;0.17;;
26562;SDS011;14217;50.986;5.826;2022-07-06T12:33:25;0.38;;;0.15;;
26562;SDS011;14217;50.986;5.826;2022-07-06T12:38:29;0.30;;;0.30;;
26562;SDS011;14217;50.986;5.826;2022-07-06T12:43:38;0.13;;;0.13;;
26562;SDS011;14217;50.986;5.826;2022-07-06T12:48:51;0.28;;;0.20;;
26562;SDS011;14217;50.986;5.826;2022-07-06T12:54:13;0.10;;;0.10;;
26562;SDS011;14217;50.986;5.826;2022-07-06T12:59:21;0.52;;;0.22;;
26562;SDS011;14217;50.986;5.826;2022-07-06T13:04:24;0.52;;;0.20;;
26562;SDS011;14217;50.986;5.826;2022-07-06T13:09:27;0.17;;;0.10;;
26562;SDS011;14217;50.986;5.826;2022-07-06T13:14:30;0.63;;;0.30;;
26562;SDS011;14217;50.986;5.826;2022-07-06T13:19:32;0.38;;;0.28;;
26562;SDS011;14217;50.986;5.826;2022-07-06T13:24:34;0.17;;;0.10;;
26562;SDS011;14217;50.986;5.826;2022-07-06T13:29:39;0.63;;;0.20;;
26562;SDS011;14217;50.986;5.826;2022-07-06T13:34:41;0.15;;;0.15;;
26562;SDS011;14217;50.986;5.826;2022-07-06T13:39:43;0.82;;;0.30;;
26562;SDS011;14217;50.986;5.826;2022-07-06T13:44:45;0.75;;;0.30;;
26562;SDS011;14217;50.986;5.826;2022-07-06T13:49:47;0.10;;;0.10;;
26562;SDS011;14217;50.986;5.826;2022-07-06T13:54:49;1.83;;;0.40;;
26562;SDS011;14217;50.986;5.826;2022-07-06T13:59:51;0.85;;;0.20;;
26562;SDS011;14217;50.986;5.826;2022-07-06T14:04:53;2.83;;;0.47;;
26562;SDS011;14217;50.986;5.826;2022-07-06T14:09:56;0.60;;;0.50;;
26562;SDS011;14217;50.986;5.826;2022-07-06T14:14:58;1.13;;;0.43;;
26562;SDS011;14217;50.986;5.826;2022-07-06T14:20:00;1.85;;;0.60;;
26562;SDS011;14217;50.986;5.826;2022-07-06T14:25:03;0.30;;;0.30;;
26562;SDS011;14217;50.986;5.826;2022-07-06T14:30:07;0.82;;;0.45;;
26562;SDS011;14217;50.986;5.826;2022-07-06T14:35:10;1.05;;;0.22;;
26562;SDS011;14217;50.986;5.826;2022-07-06T14:40:13;0.32;;;0.25;;
26562;SDS011;14217;50.986;5.826;2022-07-06T14:45:15;1.95;;;0.40;;
26562;SDS011;14217;50.986;5.826;2022-07-06T14:50:17;1.50;;;0.68;;
26562;SDS011;14217;50.986;5.826;2022-07-06T14:55:21;0.57;;;0.30;;
26562;SDS011;14217;50.986;5.826;2022-07-06T15:00:23;1.48;;;0.50;;
26562;SDS011;14217;50.986;5.826;2022-07-06T15:05:25;12.65;;;0.70;;
26562;SDS011;14217;50.986;5.826;2022-07-06T15:10:27;0.45;;;0.30;;
26562;SDS011;14217;50.986;5.826;2022-07-06T15:15:29;3.03;;;0.45;;
26562;SDS011;14217;50.986;5.826;2022-07-06T15:20:51;0.70;;;0.40;;
26562;SDS011;14217;50.986;5.826;2022-07-06T15:25:53;1.20;;;0.47;;
26562;SDS011;14217;50.986;5.826;2022-07-06T15:30:56;2.30;;;0.50;;
26562;SDS011;14217;50.986;5.826;2022-07-06T15:35:59;0.75;;;0.40;;
26562;SDS011;14217;50.986;5.826;2022-07-06T15:41:02;1.17;;;0.50;;
26562;SDS011;14217;50.986;5.826;2022-07-06T15:46:04;0.75;;;0.40;;
26562;SDS011;14217;50.986;5.826;2022-07-06T15:51:07;2.05;;;0.38;;
26562;SDS011;14217;50.986;5.826;2022-07-06T15:56:09;0.90;;;0.45;;
26562;SDS011;14217;50.986;5.826;2022-07-06T16:01:11;1.23;;;0.77;;
26562;SDS011;14217;50.986;5.826;2022-07-06T16:06:13;1.60;;;0.98;;
26562;SDS011;14217;50.986;5.826;2022-07-06T16:11:16;3.75;;;0.80;;
26562;SDS011;14217;50.986;5.826;2022-07-06T16:16:18;1.48;;;0.50;;
26562;SDS011;14217;50.986;5.826;2022-07-06T16:21:21;0.65;;;0.40;;
26562;SDS011;14217;50.986;5.826;2022-07-06T16:26:23;0.50;;;0.45;;
26562;SDS011;14217;50.986;5.826;2022-07-06T16:31:25;0.63;;;0.40;;
26562;SDS011;14217;50.986;5.826;2022-07-06T16:36:27;3.75;;;0.68;;
26562;SDS011;14217;50.986;5.826;2022-07-06T16:41:29;2.10;;;0.70;;
26562;SDS011;14217;50.986;5.826;2022-07-06T16:46:31;3.10;;;0.88;;
26562;SDS011;14217;50.986;5.826;2022-07-06T16:51:33;1.70;;;0.77;;
26562;SDS011;14217;50.986;5.826;2022-07-06T16:56:35;1.77;;;0.50;;
26562;SDS011;14217;50.986;5.826;2022-07-06T17:01:37;0.93;;;0.57;;
26562;SDS011;14217;50.986;5.826;2022-07-06T17:06:39;1.35;;;0.80;;
26562;SDS011;14217;50.986;5.826;2022-07-06T17:11:41;1.02;;;0.50;;
26562;SDS011;14217;50.986;5.826;2022-07-06T17:16:44;2.85;;;0.85;;
26562;SDS011;14217;50.986;5.826;2022-07-06T17:21:46;5.85;;;0.75;;
26562;SDS011;14217;50.986;5.826;2022-07-06T17:26:55;1.00;;;0.55;;
26562;SDS011;14217;50.986;5.826;2022-07-06T17:31:57;1.08;;;0.77;;
26562;SDS011;14217;50.986;5.826;2022-07-06T17:36:59;1.58;;;0.80;;
26562;SDS011;14217;50.986;5.826;2022-07-06T17:42:02;1.83;;;0.93;;
26562;SDS011;14217;50.986;5.826;2022-07-06T17:47:04;1.67;;;0.98;;
26562;SDS011;14217;50.986;5.826;2022-07-06T17:52:06;1.00;;;0.50;;
26562;SDS011;14217;50.986;5.826;2022-07-06T17:57:16;1.95;;;0.85;;
26562;SDS011;14217;50.986;5.826;2022-07-06T18:02:18;3.80;;;0.73;;
26562;SDS011;14217;50.986;5.826;2022-07-06T18:07:19;3.60;;;0.75;;
26562;SDS011;14217;50.986;5.826;2022-07-06T18:12:21;1.95;;;0.82;;
26562;SDS011;14217;50.986;5.826;2022-07-06T18:17:24;2.95;;;1.17;;
26562;SDS011;14217;50.986;5.826;2022-07-06T18:22:26;2.97;;;0.82;;
26562;SDS011;14217;50.986;5.826;2022-07-06T18:27:30;5.25;;;1.30;;
26562;SDS011;14217;50.986;5.826;2022-07-06T18:32:32;3.17;;;1.15;;
26562;SDS011;14217;50.986;5.826;2022-07-06T18:37:35;2.70;;;0.80;;
26562;SDS011;14217;50.986;5.826;2022-07-06T18:42:37;4.28;;;0.93;;
26562;SDS011;14217;50.986;5.826;2022-07-06T18:47:41;2.33;;;0.93;;
26562;SDS011;14217;50.986;5.826;2022-07-06T18:52:44;6.43;;;1.75;;
26562;SDS011;14217;50.986;5.826;2022-07-06T18:57:46;5.93;;;1.50;;
26562;SDS011;14217;50.986;5.826;2022-07-06T19:02:48;3.28;;;1.08;;
26562;SDS011;14217;50.986;5.826;2022-07-06T19:07:50;12.55;;;1.40;;
26562;SDS011;14217;50.986;5.826;2022-07-06T19:12:52;5.53;;;0.90;;
26562;SDS011;14217;50.986;5.826;2022-07-06T19:17:55;2.08;;;1.13;;
26562;SDS011;14217;50.986;5.826;2022-07-06T19:22:57;3.97;;;0.77;;
26562;SDS011;14217;50.986;5.826;2022-07-06T19:27:59;2.22;;;0.95;;
26562;SDS011;14217;50.986;5.826;2022-07-06T19:33:01;8.82;;;1.20;;
26562;SDS011;14217;50.986;5.826;2022-07-06T19:38:03;2.65;;;1.10;;
26562;SDS011;14217;50.986;5.826;2022-07-06T19:43:05;4.82;;;1.10;;
26562;SDS011;14217;50.986;5.826;2022-07-06T19:48:07;4.70;;;1.20;;
26562;SDS011;14217;50.986;5.826;2022-07-06T19:53:10;1.48;;;0.85;;
26562;SDS011;14217;50.986;5.826;2022-07-06T19:58:13;2.10;;;1.13;;
26562;SDS011;14217;50.986;5.826;2022-07-06T20:03:15;2.80;;;1.70;;
26562;SDS011;14217;50.986;5.826;2022-07-06T20:08:17;7.53;;;0.90;;
26562;SDS011;14217;50.986;5.826;2022-07-06T20:13:19;1.88;;;1.15;;
26562;SDS011;14217;50.986;5.826;2022-07-06T20:18:21;1.42;;;0.90;;
26562;SDS011;14217;50.986;5.826;2022-07-06T20:23:24;2.70;;;1.42;;
26562;SDS011;14217;50.986;5.826;2022-07-06T20:28:27;0.70;;;0.70;;
26562;SDS011;14217;50.986;5.826;2022-07-06T20:33:29;1.60;;;1.33;;
26562;SDS011;14217;50.986;5.826;2022-07-06T20:38:31;0.85;;;0.70;;
26562;SDS011;14217;50.986;5.826;2022-07-06T20:43:33;2.08;;;0.90;;
26562;SDS011;14217;50.986;5.826;2022-07-06T20:48:36;9.40;;;1.20;;
26562;SDS011;14217;50.986;5.826;2022-07-06T20:53:38;4.25;;;1.23;;
26562;SDS011;14217;50.986;5.826;2022-07-06T20:58:40;0.85;;;0.70;;
26562;SDS011;14217;50.986;5.826;2022-07-06T21:04:02;3.15;;;1.20;;
26562;SDS011;14217;50.986;5.826;2022-07-06T21:09:04;12.98;;;1.30;;
26562;SDS011;14217;50.986;5.826;2022-07-06T21:14:06;4.10;;;1.30;;
26562;SDS011;14217;50.986;5.826;2022-07-06T21:19:08;4.30;;;1.45;;
26562;SDS011;14217;50.986;5.826;2022-07-06T21:24:10;2.80;;;1.20;;
26562;SDS011;14217;50.986;5.826;2022-07-06T21:29:12;6.70;;;1.02;;
26562;SDS011;14217;50.986;5.826;2022-07-06T21:34:15;18.13;;;1.45;;
26562;SDS011;14217;50.986;5.826;2022-07-06T21:39:16;1.95;;;1.05;;
26562;SDS011;14217;50.986;5.826;2022-07-06T21:44:18;2.13;;;1.40;;
26562;SDS011;14217;50.986;5.826;2022-07-06T21:49:20;1.13;;;0.60;;
26562;SDS011;14217;50.986;5.826;2022-07-06T21:54:22;1.48;;;0.85;;
26562;SDS011;14217;50.986;5.826;2022-07-06T21:59:25;1.45;;;0.70;;
26562;SDS011;14217;50.986;5.826;2022-07-06T22:04:29;2.03;;;0.70;;
26562;SDS011;14217;50.986;5.826;2022-07-06T22:09:32;1.75;;;1.02;;
26562;SDS011;14217;50.986;5.826;2022-07-06T22:14:34;2.88;;;1.17;;
26562;SDS011;14217;50.986;5.826;2022-07-06T22:19:36;2.22;;;1.27;;
26562;SDS011;14217;50.986;5.826;2022-07-06T22:24:39;2.33;;;0.90;;
26562;SDS011;14217;50.986;5.826;2022-07-06T22:29:41;1.83;;;0.70;;
26562;SDS011;14217;50.986;5.826;2022-07-06T22:34:43;1.65;;;0.90;;
26562;SDS011;14217;50.986;5.826;2022-07-06T22:39:45;1.70;;;0.90;;
26562;SDS011;14217;50.986;5.826;2022-07-06T22:44:48;1.77;;;1.02;;
26562;SDS011;14217;50.986;5.826;2022-07-06T22:49:56;2.38;;;0.70;;
26562;SDS011;14217;50.986;5.826;2022-07-06T22:54:58;1.42;;;0.98;;
26562;SDS011;14217;50.986;5.826;2022-07-06T23:00:04;1.08;;;0.68;;
26562;SDS011;14217;50.986;5.826;2022-07-06T23:05:07;1.50;;;0.73;;
26562;SDS011;14217;50.986;5.826;2022-07-06T23:10:10;0.50;;;0.50;;
26562;SDS011;14217;50.986;5.826;2022-07-06T23:15:12;2.63;;;0.80;;
26562;SDS011;14217;50.986;5.826;2022-07-06T23:20:15;1.52;;;0.65;;
26562;SDS011;14217;50.986;5.826;2022-07-06T23:25:17;1.15;;;0.57;;
26562;SDS011;14217;50.986;5.826;2022-07-06T23:30:20;1.73;;;0.80;;
26562;SDS011;14217;50.986;5.826;2022-07-06T23:35:22;0.85;;;0.65;;
26562;SDS011;14217;50.986;5.826;2022-07-06T23:40:25;0.95;;;0.55;;
26562;SDS011;14217;50.986;5.826;2022-07-06T23:45:28;0.95;;;0.70;;
26562;SDS011;14217;50.986;5.826;2022-07-06T23:50:30;1.63;;;0.93;;
26562;SDS011;14217;50.986;5.826;2022-07-06T23:55:33;1.35;;;0.80;;
